Time;durP1;ratioP1;P1;durP2;ratioP2;P2;SDS_P1;SDS_P2;PMS_P1;PMS_P2;Temp;Humidity;BMP_temperature;BMP_pressure;BME280_temperature;BME280_humidity;BME280_pressure;Samples;Min_cycle;Max_cycle;Signal;HPM_P1;HPM_P2
2021/12/24 07:21:18;;;;;;;0.00;0.00;;;8.20;99.90;;;;;;6009012;23;21073;31
2021/12/24 07:23:44;;;;;;;0.00;0.00;;;8.10;99.90;;;;;;4878924;29;20136;-71
2021/12/24 07:26:09;;;;;;;0.00;0.00;;;8.10;99.90;;;;;;4881190;29;20070;-71
2021/12/24 07:28:36;;;;;;;0.00;0.00;;;8.20;99.90;;;;;;4892196;29;20036;-70
2021/12/24 07:31:01;;;;;;;0.00;0.00;;;8.20;99.90;;;;;;4888598;29;20036;-70
2021/12/24 07:33:27;;;;;;;0.00;0.00;;;8.20;99.90;;;;;;4877613;29;20021;-70
2021/12/24 07:35:52;;;;;;;0.00;0.00;;;8.20;99.90;;;;;;4891576;29;20043;-70
2021/12/24 07:38:18;;;;;;;0.00;0.00;;;8.20;99.90;;;;;;4890686;29;20031;-71
2021/12/24 07:40:45;;;;;;;0.00;0.00;;;8.20;99.90;;;;;;4888557;29;20025;-71
2021/12/24 07:43:12;;;;;;;0.00;0.00;;;8.20;99.90;;;;;;4888064;29;20033;-70
2021/12/24 07:45:40;;;;;;;0.00;0.00;;;8.20;99.90;;;;;;4888486;29;20522;-70
2021/12/24 07:48:11;;;;;;;0.00;0.00;;;8.20;99.90;;;;;;4888421;29;20436;-70
2021/12/24 07:53:06;;;;;;;0.00;0.00;;;8.20;99.90;;;;;;4888233;29;20028;-70
2021/12/24 07:55:33;;;;;;;0.00;0.00;;;8.30;99.90;;;;;;4887355;29;20040;-71
2021/12/24 07:58:01;;;;;;;0.00;0.00;;;8.30;99.90;;;;;;4887480;29;20426;-70
2021/12/24 08:00:27;;;;;;;0.00;0.00;;;8.30;99.90;;;;;;4893533;29;20040;-70
2021/12/24 08:02:57;;;;;;;0.00;0.00;;;8.30;99.90;;;;;;4887530;29;20061;-70
2021/12/24 08:05:25;;;;;;;0.00;0.00;;;8.30;99.90;;;;;;4893390;29;20072;-70
2021/12/24 08:07:52;;;;;;;0.00;0.00;;;8.30;99.90;;;;;;4895419;29;20036;-70
2021/12/24 08:10:20;;;;;;;0.00;0.00;;;8.30;99.90;;;;;;4890469;29;20048;-70
2021/12/24 08:12:45;;;;;;;0.00;0.00;;;8.40;99.90;;;;;;4889411;29;20052;-70
2021/12/24 08:15:11;;;;;;;0.00;0.00;;;8.30;99.90;;;;;;4894782;29;20029;-70
2021/12/24 08:17:37;;;;;;;0.00;0.00;;;8.30;99.90;;;;;;4896295;29;20033;-70
2021/12/24 08:20:04;;;;;;;0.00;0.00;;;8.40;99.90;;;;;;4897547;29;20157;-70
2021/12/24 08:22:30;;;;;;;0.00;0.00;;;8.40;99.90;;;;;;4888617;29;20545;-70
2021/12/24 08:24:55;;;;;;;0.00;0.00;;;8.40;99.90;;;;;;4891881;29;20115;-69
2021/12/24 08:27:21;;;;;;;0.00;0.00;;;8.40;99.90;;;;;;4891880;29;20059;-70
2021/12/24 08:29:47;;;;;;;0.00;0.00;;;8.40;99.90;;;;;;4893096;29;20033;-70
2021/12/24 08:32:13;;;;;;;0.00;0.00;;;8.40;99.90;;;;;;4897171;29;20036;-70
2021/12/24 08:34:39;;;;;;;0.00;0.00;;;8.30;99.90;;;;;;4893339;29;20028;-70
2021/12/24 08:37:05;;;;;;;0.00;0.00;;;8.40;99.90;;;;;;4888757;29;20028;-70
2021/12/24 08:39:32;;;;;;;0.00;0.00;;;8.40;99.90;;;;;;4894683;29;20109;-70
2021/12/24 08:41:59;;;;;;;0.00;0.00;;;8.30;99.90;;;;;;4887764;29;20088;-70
2021/12/24 08:44:29;;;;;;;0.00;0.00;;;8.30;99.90;;;;;;4894208;29;20047;-70
2021/12/24 08:46:55;;;;;;;0.00;0.00;;;8.40;99.90;;;;;;4887917;29;20077;-70
2021/12/24 08:49:23;;;;;;;0.00;0.00;;;8.40;99.90;;;;;;4897238;29;20033;-70
2021/12/24 08:51:50;;;;;;;0.00;0.00;;;8.40;99.90;;;;;;4878667;29;20097;-70
2021/12/24 08:54:15;;;;;;;0.00;0.00;;;8.40;99.90;;;;;;4882893;29;20029;-70
2021/12/24 08:56:41;;;;;;;0.00;0.00;;;8.40;99.90;;;;;;4888107;29;20043;-70
2021/12/24 08:59:07;;;;;;;0.00;0.00;;;8.40;99.90;;;;;;4881361;29;20032;-70
2021/12/24 09:01:33;;;;;;;0.00;0.00;;;8.50;99.90;;;;;;4884257;29;20045;-70
2021/12/24 09:03:58;;;;;;;0.00;0.00;;;8.50;99.90;;;;;;4888915;29;20080;-70
2021/12/24 09:06:24;;;;;;;0.00;0.00;;;8.50;99.90;;;;;;4887416;29;20048;-70
2021/12/24 09:08:50;;;;;;;0.00;0.00;;;8.50;99.90;;;;;;4883788;29;20120;-70
2021/12/24 09:11:16;;;;;;;0.00;0.00;;;8.50;99.90;;;;;;4877475;29;20068;-70
2021/12/24 09:13:41;;;;;;;0.00;0.00;;;8.50;99.90;;;;;;4892493;29;20025;-71
2021/12/24 09:16:07;;;;;;;0.00;0.00;;;8.50;99.90;;;;;;4883692;29;20028;-70
2021/12/24 09:18:33;;;;;;;0.00;0.00;;;8.50;99.90;;;;;;4881402;29;20033;-70
2021/12/24 09:21:02;;;;;;;0.00;0.00;;;8.50;99.90;;;;;;4887479;29;20033;-70
2021/12/24 09:23:29;;;;;;;0.00;0.00;;;8.50;99.90;;;;;;4883749;29;20048;-70
2021/12/24 09:25:55;;;;;;;0.00;0.00;;;8.50;99.90;;;;;;4877482;29;20049;-70
2021/12/24 09:28:21;;;;;;;0.00;0.00;;;8.50;99.90;;;;;;4889324;29;20080;-70
2021/12/24 09:30:47;;;;;;;0.00;0.00;;;8.50;99.90;;;;;;4885295;29;20877;-70
2021/12/24 09:33:12;;;;;;;0.00;0.00;;;8.50;99.90;;;;;;4886161;29;20440;-71
2021/12/24 09:35:38;;;;;;;0.00;0.00;;;8.50;99.90;;;;;;4884263;29;20032;-70
2021/12/24 09:38:04;;;;;;;0.00;0.00;;;8.60;99.90;;;;;;4890497;29;20170;-70
2021/12/24 09:40:31;;;;;;;0.00;0.00;;;8.60;99.90;;;;;;4877376;29;20025;-71
2021/12/24 09:42:57;;;;;;;0.00;0.00;;;8.60;99.90;;;;;;4887269;29;20040;-71
2021/12/24 09:45:23;;;;;;;0.00;0.00;;;8.70;99.90;;;;;;4881946;29;20177;-71
2021/12/24 09:47:48;;;;;;;0.00;0.00;;;8.70;99.90;;;;;;4892999;29;20115;-71
2021/12/24 09:50:17;;;;;;;0.00;0.00;;;8.70;99.90;;;;;;4882195;29;20036;-71
2021/12/24 09:52:46;;;;;;;0.00;0.00;;;8.70;99.90;;;;;;4889464;29;20431;-70
2021/12/24 09:55:15;;;;;;;0.00;0.00;;;8.70;99.90;;;;;;4894839;29;20037;-71
2021/12/24 09:57:42;;;;;;;0.00;0.00;;;8.70;99.90;;;;;;4883002;29;20035;-71
2021/12/24 10:00:09;;;;;;;0.00;0.00;;;8.70;99.90;;;;;;4884344;29;20035;-71
2021/12/24 10:02:43;;;;;;;0.00;0.00;;;8.70;99.90;;;;;;4884122;29;20119;-71
2021/12/24 10:05:29;;;;;;;0.00;0.00;;;8.80;99.90;;;;;;4883932;29;20044;-70
2021/12/24 10:08:14;;;;;;;0.00;0.00;;;8.80;99.90;;;;;;4878264;29;20037;-71
2021/12/24 10:10:43;;;;;;;0.00;0.00;;;8.90;99.90;;;;;;4888336;29;20469;-71
2021/12/24 10:13:38;;;;;;;0.00;0.00;;;9.00;99.90;;;;;;4892973;29;20043;-71
2021/12/24 10:16:17;;;;;;;0.00;0.00;;;9.00;99.90;;;;;;4872683;29;20127;-71
2021/12/24 10:18:47;;;;;;;0.00;0.00;;;9.00;99.90;;;;;;4892775;29;20468;-71
2021/12/24 10:21:22;;;;;;;0.00;0.00;;;9.00;99.90;;;;;;4898344;29;20036;-71
2021/12/24 10:23:50;;;;;;;0.00;0.00;;;8.90;99.90;;;;;;4886891;29;20496;-71
2021/12/24 10:26:23;;;;;;;0.00;0.00;;;8.90;99.90;;;;;;4888845;29;20040;-71
2021/12/24 10:29:02;;;;;;;0.00;0.00;;;8.90;99.90;;;;;;4897817;29;20047;-71
2021/12/24 10:31:31;;;;;;;0.00;0.00;;;8.90;99.90;;;;;;4887963;29;20865;-70
2021/12/24 10:34:07;;;;;;;0.00;0.00;;;9.00;99.90;;;;;;4888376;29;20033;-71
2021/12/24 10:36:49;;;;;;;0.00;0.00;;;9.10;99.90;;;;;;4895319;29;20120;-71
2021/12/24 10:39:18;;;;;;;0.00;0.00;;;9.20;99.90;;;;;;4887157;29;20025;-71
2021/12/24 10:41:48;;;;;;;0.00;0.00;;;9.20;99.90;;;;;;4884828;29;20566;-71
2021/12/24 10:44:19;;;;;;;0.00;0.00;;;9.20;99.90;;;;;;4890267;29;20480;-70
2021/12/24 10:47:10;;;;;;;0.00;0.00;;;9.10;99.90;;;;;;4880558;29;20052;-71
2021/12/24 10:52:57;;;;;;;0.00;0.00;;;9.00;99.90;;;;;;4890995;29;20056;-70
2021/12/24 10:55:24;;;;;;;0.00;0.00;;;9.00;99.90;;;;;;4887443;29;20041;-69
2021/12/24 10:57:54;;;;;;;0.00;0.00;;;9.00;99.90;;;;;;4882647;29;20115;-70
2021/12/24 11:00:56;;;;;;;0.00;0.00;;;9.00;99.90;;;;;;4881909;29;20115;-70
2021/12/24 11:03:28;;;;;;;0.00;0.00;;;9.10;99.90;;;;;;4889099;29;20028;-70
2021/12/24 11:06:02;;;;;;;0.00;0.00;;;9.20;99.90;;;;;;4887429;29;20108;-70
2021/12/24 11:08:29;;;;;;;0.00;0.00;;;9.20;99.90;;;;;;4895482;29;20031;-70
2021/12/24 11:10:57;;;;;;;0.00;0.00;;;9.20;99.90;;;;;;4884308;29;20514;-70
2021/12/24 11:13:32;;;;;;;0.00;0.00;;;9.20;99.90;;;;;;4880104;29;20101;-70
2021/12/24 11:15:59;;;;;;;0.00;0.00;;;9.20;99.90;;;;;;4885494;29;20500;-69
2021/12/24 11:18:26;;;;;;;0.00;0.00;;;9.30;99.90;;;;;;4885849;29;20065;-70
2021/12/24 11:21:02;;;;;;;0.00;0.00;;;9.30;99.90;;;;;;4890246;29;20063;-70
2021/12/24 11:23:31;;;;;;;0.00;0.00;;;9.30;99.90;;;;;;4882093;29;20040;-70
2021/12/24 11:26:12;;;;;;;0.00;0.00;;;9.30;99.90;;;;;;4889710;29;20048;-70
2021/12/24 11:28:39;;;;;;;0.00;0.00;;;9.20;99.90;;;;;;4888588;29;20029;-70
2021/12/24 11:31:14;;;;;;;0.00;0.00;;;9.20;99.90;;;;;;4880998;29;20119;-70
2021/12/24 11:33:42;;;;;;;0.00;0.00;;;9.20;99.90;;;;;;4871550;29;20104;-70
2021/12/24 11:36:10;;;;;;;0.00;0.00;;;9.10;99.90;;;;;;4881402;29;20044;-70
2021/12/24 11:38:56;;;;;;;0.00;0.00;;;9.10;99.90;;;;;;4883645;29;20048;-70
2021/12/24 11:41:26;;;;;;;0.00;0.00;;;9.00;99.90;;;;;;4895152;29;20096;-70
2021/12/24 11:43:56;;;;;;;0.00;0.00;;;8.90;99.90;;;;;;4880713;29;20041;-70
2021/12/24 11:46:23;;;;;;;0.00;0.00;;;8.90;99.90;;;;;;4878594;29;20044;-70
2021/12/24 11:48:52;;;;;;;0.00;0.00;;;8.80;99.90;;;;;;4887744;29;20033;-69
2021/12/24 11:51:29;;;;;;;0.00;0.00;;;8.60;99.90;;;;;;4897915;29;20036;-70
2021/12/24 11:54:00;;;;;;;0.00;0.00;;;7.90;99.90;;;;;;4895963;29;20055;-70
2021/12/24 11:56:25;;;;;;;0.00;0.00;;;7.10;99.90;;;;;;4888344;29;20079;-70
2021/12/24 11:58:56;;;;;;;0.00;0.00;;;6.60;99.90;;;;;;4887096;29;20053;-70
2021/12/24 12:01:25;;;;;;;0.00;0.00;;;6.50;99.90;;;;;;4892273;29;20476;-70
2021/12/24 12:03:58;;;;;;;0.00;0.00;;;6.30;99.90;;;;;;4887943;29;20611;-71
2021/12/24 12:06:23;;;;;;;0.00;0.00;;;6.30;99.90;;;;;;4879020;29;20049;-71
2021/12/24 12:08:55;;;;;;;0.00;0.00;;;6.20;99.90;;;;;;4885610;29;20170;-71
2021/12/24 12:11:26;;;;;;;0.00;0.00;;;6.10;99.90;;;;;;4885628;29;20064;-71
2021/12/24 12:14:14;;;;;;;0.00;0.00;;;6.00;99.90;;;;;;4888455;29;20037;-70
2021/12/24 12:16:39;;;;;;;0.00;0.00;;;6.00;99.90;;;;;;4881385;29;20033;-70
2021/12/24 12:19:21;;;;;;;0.00;0.00;;;5.90;99.90;;;;;;4889456;29;20036;-70
2021/12/24 12:24:57;;;;;;;0.00;0.00;;;5.70;99.90;;;;;;4889185;29;20041;-71
2021/12/24 12:27:44;;;;;;;0.00;0.00;;;5.70;99.90;;;;;;4889784;29;20036;-70
2021/12/24 12:30:37;;;;;;;0.00;0.00;;;5.90;99.90;;;;;;4886083;29;20045;-71
2021/12/24 12:33:06;;;;;;;0.00;0.00;;;5.90;99.90;;;;;;4884470;29;20037;-70
2021/12/24 12:36:02;;;;;;;0.00;0.00;;;5.90;99.90;;;;;;4889818;29;20040;-71
2021/12/24 12:38:38;;;;;;;0.00;0.00;;;5.90;99.90;;;;;;4896301;29;20449;-71
2021/12/24 12:41:22;;;;;;;0.00;0.00;;;5.70;99.90;;;;;;4884474;29;20048;-70
2021/12/24 12:43:50;;;;;;;0.00;0.00;;;5.50;99.90;;;;;;4889090;29;20392;-70
2021/12/24 12:46:26;;;;;;;0.00;0.00;;;5.40;99.90;;;;;;4884403;29;20043;-70
2021/12/24 12:48:53;;;;;;;0.00;0.00;;;5.30;99.90;;;;;;4886469;29;20041;-70
2021/12/24 12:51:22;;;;;;;0.00;0.00;;;5.20;99.90;;;;;;4896808;29;20043;-70
2021/12/24 12:53:50;;;;;;;0.00;0.00;;;5.00;99.90;;;;;;4890121;29;20132;-70
2021/12/24 12:56:23;;;;;;;0.00;0.00;;;5.00;99.90;;;;;;4897049;29;20049;-70
2021/12/24 12:59:03;;;;;;;0.00;0.00;;;4.90;99.90;;;;;;4878743;29;20036;-70
2021/12/24 13:01:30;;;;;;;0.00;0.00;;;4.70;99.90;;;;;;4894973;29;20468;-71
2021/12/24 13:03:55;;;;;;;0.00;0.00;;;4.70;99.90;;;;;;4885374;29;20133;-70
2021/12/24 13:06:23;;;;;;;0.00;0.00;;;4.70;99.90;;;;;;4876893;29;20041;-70
2021/12/24 13:08:49;;;;;;;0.00;0.00;;;4.70;99.90;;;;;;4888445;29;20115;-70
2021/12/24 13:11:20;;;;;;;0.00;0.00;;;4.60;99.90;;;;;;4883118;29;20400;-70
2021/12/24 13:13:56;;;;;;;0.00;0.00;;;4.60;99.90;;;;;;4885520;29;20040;-70
2021/12/24 13:16:39;;;;;;;0.00;0.00;;;4.60;99.90;;;;;;4887654;29;20063;-70
2021/12/24 13:24:59;;;;;;;0.00;0.00;;;4.50;99.90;;;;;;4876671;29;20481;-70
2021/12/24 13:27:29;;;;;;;0.00;0.00;;;4.40;99.90;;;;;;4877678;29;20045;-70
2021/12/24 13:30:14;;;;;;;0.00;0.00;;;4.20;99.90;;;;;;4883147;29;20111;-70
2021/12/24 13:32:42;;;;;;;0.00;0.00;;;4.20;99.90;;;;;;4879085;29;20033;-71
2021/12/24 13:35:08;;;;;;;0.00;0.00;;;4.20;99.90;;;;;;4868756;29;20029;-70
2021/12/24 13:37:34;;;;;;;0.00;0.00;;;4.20;99.90;;;;;;4889110;29;20040;-70
2021/12/24 13:40:01;;;;;;;0.00;0.00;;;4.00;99.90;;;;;;4892632;29;20029;-70
2021/12/24 13:42:26;;;;;;;0.00;0.00;;;4.00;99.90;;;;;;4877654;29;20041;-71
2021/12/24 13:45:03;;;;;;;0.00;0.00;;;4.00;99.90;;;;;;4882753;29;20039;-70
2021/12/24 13:47:42;;;;;;;0.00;0.00;;;3.90;99.90;;;;;;4879823;29;20089;-70
2021/12/24 13:50:26;;;;;;;0.00;0.00;;;3.80;99.90;;;;;;4882499;29;20033;-70
2021/12/24 13:55:42;;;;;;;0.00;0.00;;;3.70;99.90;;;;;;4880704;29;20128;-69
2021/12/24 13:58:11;;;;;;;0.00;0.00;;;3.60;99.90;;;;;;4883241;29;20065;-69
2021/12/24 14:00:39;;;;;;;0.00;0.00;;;3.50;99.90;;;;;;4888421;29;20052;-70
2021/12/24 14:03:09;;;;;;;0.00;0.00;;;3.50;99.90;;;;;;4896262;29;20036;-70
2021/12/24 14:05:50;;;;;;;0.00;0.00;;;3.50;99.90;;;;;;4896285;29;20040;-70
2021/12/24 14:08:22;;;;;;;0.00;0.00;;;3.50;99.90;;;;;;4886847;29;20033;-70
2021/12/24 14:11:04;;;;;;;0.00;0.00;;;3.40;99.90;;;;;;4893374;29;20028;-73
2021/12/24 14:13:34;;;;;;;0.00;0.00;;;3.30;99.90;;;;;;4880291;29;20377;-74
2021/12/24 14:16:12;;;;;;;0.00;0.00;;;3.20;99.90;;;;;;4878287;29;20033;-74
2021/12/24 14:24:11;;;;;;;0.00;0.00;;;3.10;99.90;;;;;;4882345;29;20144;-73
2021/12/24 14:26:50;;;;;;;0.00;0.00;;;2.90;99.90;;;;;;4887554;29;20067;-73
2021/12/24 14:29:34;;;;;;;0.00;0.00;;;2.90;99.90;;;;;;4893249;29;20095;-71
2021/12/24 14:32:07;;;;;;;0.00;0.00;;;2.90;99.90;;;;;;4892085;29;20025;-74
2021/12/24 14:34:43;;;;;;;0.00;0.00;;;2.70;99.90;;;;;;4882991;29;20104;-74
2021/12/24 14:37:10;;;;;;;0.00;0.00;;;2.70;99.90;;;;;;4892771;29;20052;-73
2021/12/24 14:39:45;;;;;;;0.00;0.00;;;2.60;99.90;;;;;;4895392;29;20036;-72
2021/12/24 14:42:22;;;;;;;0.00;0.00;;;2.40;99.90;;;;;;4879626;29;20124;-71
2021/12/24 14:44:50;;;;;;;0.00;0.00;;;2.40;99.90;;;;;;4885056;29;20136;-70
2021/12/24 14:47:29;;;;;;;0.00;0.00;;;2.40;99.90;;;;;;4886977;29;20037;-69
2021/12/24 14:50:02;;;;;;;0.00;0.00;;;2.20;99.90;;;;;;4887378;29;20547;-72
2021/12/24 14:52:27;;;;;;;0.00;0.00;;;2.10;99.90;;;;;;4885762;29;20056;-72
2021/12/24 14:55:05;;;;;;;0.00;0.00;;;2.10;99.90;;;;;;4887207;29;20446;-70
2021/12/24 14:57:32;;;;;;;0.00;0.00;;;2.00;99.90;;;;;;4887381;29;20766;-72
2021/12/24 15:00:07;;;;;;;0.00;0.00;;;1.90;99.90;;;;;;4887962;29;21511;-73
2021/12/24 15:02:43;;;;;;;0.00;0.00;;;1.80;99.90;;;;;;4886283;29;20040;-74
2021/12/24 15:05:09;;;;;;;0.00;0.00;;;1.70;99.90;;;;;;4886769;29;20036;-74
2021/12/24 15:07:35;;;;;;;0.00;0.00;;;1.60;99.90;;;;;;4886412;29;20087;-72
2021/12/24 15:10:12;;;;;;;0.00;0.00;;;1.70;99.90;;;;;;4896726;29;20048;-74
2021/12/24 15:12:48;;;;;;;0.00;0.00;;;1.60;99.90;;;;;;4885491;29;20076;-75
2021/12/24 15:15:15;;;;;;;0.00;0.00;;;1.70;99.90;;;;;;4888508;29;20033;-72
2021/12/24 15:17:42;;;;;;;0.00;0.00;;;1.70;99.90;;;;;;4891500;29;20036;-73
2021/12/24 15:20:09;;;;;;;0.00;0.00;;;1.80;99.90;;;;;;4885603;29;20127;-71
2021/12/24 15:22:35;;;;;;;0.00;0.00;;;1.70;99.90;;;;;;4894625;29;20047;-74
2021/12/24 15:25:01;;;;;;;0.00;0.00;;;1.60;99.90;;;;;;4877777;29;20070;-71
2021/12/24 15:27:32;;;;;;;0.00;0.00;;;1.60;99.90;;;;;;4887135;29;20440;-73
2021/12/24 15:29:59;;;;;;;0.00;0.00;;;1.50;99.90;;;;;;4883480;29;20055;-72
2021/12/24 15:32:24;;;;;;;0.00;0.00;;;1.60;99.90;;;;;;4894931;29;20039;-72
2021/12/24 15:34:50;;;;;;;0.00;0.00;;;1.60;99.90;;;;;;4881406;29;20032;-72
2021/12/24 15:37:16;;;;;;;0.00;0.00;;;1.50;99.90;;;;;;4891973;29;20039;-75
2021/12/24 15:39:41;;;;;;;0.00;0.00;;;1.50;99.90;;;;;;4896486;29;20029;-72
2021/12/24 15:42:08;;;;;;;0.00;0.00;;;1.40;99.90;;;;;;4886345;29;20041;-71
2021/12/24 15:44:34;;;;;;;0.00;0.00;;;1.40;99.90;;;;;;4892603;29;20036;-73
2021/12/24 15:47:00;;;;;;;0.00;0.00;;;1.40;99.90;;;;;;4880880;29;20048;-74
2021/12/24 15:49:26;;;;;;;0.00;0.00;;;1.30;99.90;;;;;;4881291;29;20040;-74
2021/12/24 15:51:52;;;;;;;0.00;0.00;;;1.20;99.90;;;;;;4885936;29;20374;-73
2021/12/24 15:54:17;;;;;;;0.00;0.00;;;1.20;99.90;;;;;;4893940;29;20065;-73
2021/12/24 15:56:43;;;;;;;0.00;0.00;;;1.10;99.90;;;;;;4884196;29;20040;-74
2021/12/24 15:59:08;;;;;;;0.00;0.00;;;1.00;99.90;;;;;;4890082;29;20041;-73
2021/12/24 16:01:34;;;;;;;0.00;0.00;;;1.10;99.90;;;;;;4886175;29;20108;-72
2021/12/24 16:04:00;;;;;;;0.00;0.00;;;1.10;99.90;;;;;;4879309;29;20472;-73
2021/12/24 16:06:26;;;;;;;0.00;0.00;;;1.10;99.90;;;;;;4886438;29;20096;-72
2021/12/24 16:08:51;;;;;;;0.00;0.00;;;1.10;99.90;;;;;;4891141;29;20040;-74
2021/12/24 16:11:17;;;;;;;0.00;0.00;;;1.10;99.90;;;;;;4891308;29;20040;-73
2021/12/24 16:13:43;;;;;;;0.00;0.00;;;1.10;99.90;;;;;;4890492;29;20035;-73
2021/12/24 16:16:08;;;;;;;0.00;0.00;;;1.10;99.90;;;;;;4876887;29;20037;-72
2021/12/24 16:18:34;;;;;;;0.00;0.00;;;1.00;99.90;;;;;;4882432;29;20072;-74
2021/12/24 16:21:00;;;;;;;0.00;0.00;;;1.10;99.90;;;;;;4886798;29;20124;-74
2021/12/24 16:23:26;;;;;;;0.00;0.00;;;1.10;99.90;;;;;;4888212;29;20124;-74
2021/12/24 16:25:52;;;;;;;0.00;0.00;;;1.10;99.90;;;;;;4886050;29;20045;-74
2021/12/24 16:28:17;;;;;;;0.00;0.00;;;1.20;99.90;;;;;;4888072;29;20104;-73
2021/12/24 16:30:43;;;;;;;0.00;0.00;;;1.20;99.90;;;;;;4876338;29;20025;-75
2021/12/24 16:33:09;;;;;;;0.00;0.00;;;1.20;99.90;;;;;;4887815;29;20036;-73
2021/12/24 16:35:35;;;;;;;0.00;0.00;;;1.10;99.90;;;;;;4885063;29;20067;-73
2021/12/24 16:38:02;;;;;;;0.00;0.00;;;1.10;99.90;;;;;;4893072;29;20040;-74
2021/12/24 16:40:31;;;;;;;0.00;0.00;;;1.10;99.90;;;;;;4885078;29;20033;-73
2021/12/24 16:42:56;;;;;;;0.00;0.00;;;1.00;99.90;;;;;;4894124;29;20111;-74
2021/12/24 16:45:26;;;;;;;0.00;0.00;;;1.00;99.90;;;;;;4876139;29;20117;-73
2021/12/24 16:47:52;;;;;;;0.00;0.00;;;1.00;99.90;;;;;;4883761;29;20123;-75
2021/12/24 16:50:18;;;;;;;0.00;0.00;;;1.10;99.90;;;;;;4886123;29;20041;-73
2021/12/24 16:52:45;;;;;;;0.00;0.00;;;1.10;99.90;;;;;;4895349;29;20041;-73
2021/12/24 16:55:11;;;;;;;0.00;0.00;;;1.20;99.90;;;;;;4879176;29;20043;-74
2021/12/24 16:57:36;;;;;;;0.00;0.00;;;1.20;99.90;;;;;;4881893;29;20387;-73
2021/12/24 17:00:05;;;;;;;0.00;0.00;;;1.20;99.90;;;;;;4881646;29;20024;-73
2021/12/24 17:02:31;;;;;;;0.00;0.00;;;1.20;99.90;;;;;;4893637;29;20131;-73
2021/12/24 17:04:56;;;;;;;0.00;0.00;;;1.30;99.90;;;;;;4891135;29;20520;-73
2021/12/24 17:07:23;;;;;;;0.00;0.00;;;1.30;99.90;;;;;;4895116;29;20400;-74
2021/12/24 17:09:50;;;;;;;0.00;0.00;;;1.20;99.90;;;;;;4881579;29;20045;-73
2021/12/24 17:12:15;;;;;;;0.00;0.00;;;1.30;99.90;;;;;;4880048;29;20052;-74
2021/12/24 17:14:43;;;;;;;0.00;0.00;;;1.30;99.90;;;;;;4868302;29;20025;-75
2021/12/24 17:17:09;;;;;;;0.00;0.00;;;1.30;99.90;;;;;;4876390;29;20041;-73
2021/12/24 17:19:35;;;;;;;0.00;0.00;;;1.30;99.90;;;;;;4886277;29;20039;-74
2021/12/24 17:22:01;;;;;;;0.00;0.00;;;1.30;99.90;;;;;;4880057;29;20045;-75
2021/12/24 17:24:27;;;;;;;0.00;0.00;;;1.30;99.90;;;;;;4880514;29;20070;-74
2021/12/24 17:26:54;;;;;;;0.00;0.00;;;1.40;99.90;;;;;;4886694;29;20044;-73
2021/12/24 17:29:21;;;;;;;0.00;0.00;;;1.40;99.90;;;;;;4876914;29;20045;-73
2021/12/24 17:31:50;;;;;;;0.00;0.00;;;1.40;99.90;;;;;;4870754;29;20037;-75
2021/12/24 17:34:15;;;;;;;0.00;0.00;;;1.30;99.90;;;;;;4887378;29;20472;-74
2021/12/24 17:36:41;;;;;;;0.00;0.00;;;1.30;99.90;;;;;;4881192;29;20069;-72
2021/12/24 17:39:06;;;;;;;0.00;0.00;;;1.20;99.90;;;;;;4887465;29;20028;-75
2021/12/24 17:41:32;;;;;;;0.00;0.00;;;1.20;99.90;;;;;;4882325;29;20037;-73
2021/12/24 17:43:57;;;;;;;0.00;0.00;;;1.30;99.90;;;;;;4882075;29;20021;-73
2021/12/24 17:46:23;;;;;;;0.00;0.00;;;1.30;99.90;;;;;;4887791;29;20389;-75
2021/12/24 17:48:49;;;;;;;0.00;0.00;;;1.30;99.90;;;;;;4880947;29;20037;-72
2021/12/24 17:51:15;;;;;;;0.00;0.00;;;1.30;99.90;;;;;;4879345;29;20452;-74
2021/12/24 17:53:40;;;;;;;0.00;0.00;;;1.40;99.90;;;;;;4876563;29;20025;-74
2021/12/24 17:56:06;;;;;;;0.00;0.00;;;1.30;99.90;;;;;;4887613;29;20092;-74
2021/12/24 17:58:33;;;;;;;0.00;0.00;;;1.40;99.90;;;;;;4873277;29;20025;-75
2021/12/24 18:00:58;;;;;;;0.00;0.00;;;1.30;99.90;;;;;;4879266;29;20040;-74
2021/12/24 18:03:24;;;;;;;0.00;0.00;;;1.30;99.90;;;;;;4879131;29;20040;-74
2021/12/24 18:05:49;;;;;;;0.00;0.00;;;1.30;99.90;;;;;;4887756;29;20544;-74
2021/12/24 18:08:15;;;;;;;0.00;0.00;;;1.20;99.90;;;;;;4873308;29;20029;-75
2021/12/24 18:10:41;;;;;;;0.00;0.00;;;1.30;99.90;;;;;;4889830;29;20036;-73
2021/12/24 18:13:13;;;;;;;0.00;0.00;;;1.20;99.90;;;;;;4878727;29;20492;-74
2021/12/24 18:15:39;;;;;;;0.00;0.00;;;1.30;99.90;;;;;;4881526;29;20477;-74
2021/12/24 18:18:05;;;;;;;0.00;0.00;;;1.30;99.90;;;;;;4873438;29;20142;-74
2021/12/24 18:20:30;;;;;;;0.00;0.00;;;1.20;99.90;;;;;;4892069;29;20115;-74
2021/12/24 18:22:56;;;;;;;0.00;0.00;;;1.20;99.90;;;;;;4891921;29;20048;-74
2021/12/24 18:25:21;;;;;;;0.00;0.00;;;1.10;99.90;;;;;;4878561;29;20033;-74
2021/12/24 18:27:48;;;;;;;0.00;0.00;;;1.10;99.90;;;;;;4878356;29;20067;-74
2021/12/24 18:30:16;;;;;;;0.00;0.00;;;1.10;99.90;;;;;;4894989;29;20036;-74
2021/12/24 18:32:42;;;;;;;0.00;0.00;;;1.20;99.90;;;;;;4885204;29;20044;-73
2021/12/24 18:35:09;;;;;;;0.00;0.00;;;1.20;99.90;;;;;;4899528;29;20040;-73
2021/12/24 18:40:16;;;;;;;0.00;0.00;;;1.20;99.90;;;;;;4888391;29;20032;-75
2021/12/24 18:42:43;;;;;;;0.00;0.00;;;1.20;99.90;;;;;;4893649;29;20047;-74
2021/12/24 18:45:09;;;;;;;0.00;0.00;;;1.30;99.90;;;;;;4873224;29;20147;-74
2021/12/24 18:47:34;;;;;;;0.00;0.00;;;1.30;99.90;;;;;;4880266;29;20120;-74
2021/12/24 18:50:00;;;;;;;0.00;0.00;;;1.40;99.90;;;;;;4874629;29;20404;-74
2021/12/24 18:52:25;;;;;;;0.00;0.00;;;1.30;99.90;;;;;;4880316;29;20029;-75
2021/12/24 18:54:51;;;;;;;0.00;0.00;;;1.30;99.90;;;;;;4879869;29;20037;-75
2021/12/24 18:57:16;;;;;;;0.00;0.00;;;1.30;99.90;;;;;;4882108;29;20033;-74
2021/12/24 18:59:44;;;;;;;0.00;0.00;;;1.20;99.90;;;;;;4894235;29;20042;-74
2021/12/24 19:02:10;;;;;;;0.00;0.00;;;1.30;99.90;;;;;;4891880;29;20029;-74
2021/12/24 19:04:36;;;;;;;0.00;0.00;;;1.30;99.90;;;;;;4874012;29;20040;-74
2021/12/24 19:07:01;;;;;;;0.00;0.00;;;1.30;99.90;;;;;;4888642;29;20034;-75
2021/12/24 19:09:28;;;;;;;0.00;0.00;;;1.40;99.90;;;;;;4887081;29;20037;-74
2021/12/24 19:11:54;;;;;;;0.00;0.00;;;1.40;99.90;;;;;;4885251;29;20116;-75
2021/12/24 19:14:20;;;;;;;0.00;0.00;;;1.40;99.90;;;;;;4893831;29;20068;-74
2021/12/24 19:16:47;;;;;;;0.00;0.00;;;1.30;99.90;;;;;;4892715;29;20036;-74
2021/12/24 19:19:14;;;;;;;0.00;0.00;;;1.30;99.90;;;;;;4886270;29;20489;-75
2021/12/24 19:21:39;;;;;;;0.00;0.00;;;1.30;99.90;;;;;;4875726;29;20048;-74
2021/12/24 19:24:05;;;;;;;0.00;0.00;;;1.20;99.90;;;;;;4892651;29;20042;-75
2021/12/24 19:26:30;;;;;;;0.00;0.00;;;1.20;99.90;;;;;;4867963;29;20077;-75
2021/12/24 19:28:56;;;;;;;0.00;0.00;;;1.20;99.90;;;;;;4887161;29;20174;-74
2021/12/24 19:31:22;;;;;;;0.00;0.00;;;1.20;99.90;;;;;;4885666;29;20025;-74
2021/12/24 19:33:48;;;;;;;0.00;0.00;;;1.10;99.90;;;;;;4872580;29;20049;-76
2021/12/24 19:36:14;;;;;;;0.00;0.00;;;1.10;99.90;;;;;;4878328;29;22286;-74
2021/12/24 19:38:40;;;;;;;0.00;0.00;;;1.00;99.90;;;;;;4882537;29;20137;-75
2021/12/24 19:41:07;;;;;;;0.00;0.00;;;0.90;99.90;;;;;;4891280;29;20105;-75
2021/12/24 19:43:33;;;;;;;0.00;0.00;;;0.80;99.90;;;;;;4885920;29;20039;-75
2021/12/24 19:45:59;;;;;;;0.00;0.00;;;0.70;99.90;;;;;;4883241;29;20037;-75
2021/12/24 19:48:24;;;;;;;0.00;0.00;;;0.60;99.90;;;;;;4877842;29;20069;-74
2021/12/24 19:50:50;;;;;;;0.00;0.00;;;0.60;99.90;;;;;;4876636;29;20049;-74
2021/12/24 19:53:15;;;;;;;0.00;0.00;;;0.60;99.90;;;;;;4887497;29;20120;-74
2021/12/24 19:55:41;;;;;;;0.00;0.00;;;0.70;99.90;;;;;;4875131;29;20052;-76
2021/12/24 19:58:08;;;;;;;0.00;0.00;;;0.70;99.90;;;;;;4883980;29;20039;-75
2021/12/24 20:00:36;;;;;;;0.00;0.00;;;0.60;99.90;;;;;;4882981;29;20499;-77
2021/12/24 20:03:02;;;;;;;0.00;0.00;;;0.60;99.90;;;;;;4885400;29;20538;-74
2021/12/24 20:05:28;;;;;;;0.00;0.00;;;0.60;99.90;;;;;;4874772;29;20071;-74
2021/12/24 20:07:53;;;;;;;0.00;0.00;;;0.50;99.90;;;;;;4878297;29;20202;-73
2021/12/24 20:10:21;;;;;;;0.00;0.00;;;0.40;99.90;;;;;;4878034;29;20111;-75
2021/12/24 20:12:48;;;;;;;0.00;0.00;;;0.40;99.90;;;;;;4886993;29;20028;-74
2021/12/24 20:15:19;;;;;;;0.00;0.00;;;0.50;99.90;;;;;;4885190;29;20483;-74
2021/12/24 20:17:45;;;;;;;0.00;0.00;;;0.40;99.90;;;;;;4887768;29;20048;-73
2021/12/24 20:20:11;;;;;;;0.00;0.00;;;0.40;99.90;;;;;;4879914;29;20429;-73
2021/12/24 20:22:39;;;;;;;0.00;0.00;;;0.40;99.90;;;;;;4887687;29;20037;-73
2021/12/24 20:25:06;;;;;;;0.00;0.00;;;0.40;99.90;;;;;;4875888;29;20044;-75
2021/12/24 20:27:32;;;;;;;0.00;0.00;;;0.40;99.90;;;;;;4875210;29;20045;-75
2021/12/24 20:29:57;;;;;;;0.00;0.00;;;0.40;99.90;;;;;;4884108;29;20498;-74
2021/12/24 20:32:23;;;;;;;0.00;0.00;;;0.40;99.90;;;;;;4873411;29;20034;-72
2021/12/24 20:34:49;;;;;;;0.00;0.00;;;0.40;99.90;;;;;;4889234;29;20407;-72
2021/12/24 20:37:14;;;;;;;0.00;0.00;;;0.30;99.90;;;;;;4879074;29;20137;-72
2021/12/24 20:39:41;;;;;;;0.00;0.00;;;0.30;99.90;;;;;;4893002;29;20032;-74
2021/12/24 20:42:07;;;;;;;0.00;0.00;;;0.20;99.90;;;;;;4878461;29;20487;-71
2021/12/24 20:44:33;;;;;;;0.00;0.00;;;0.30;99.90;;;;;;4881268;29;20460;-75
2021/12/24 20:46:59;;;;;;;0.00;0.00;;;0.20;99.90;;;;;;4878085;29;20100;-73
2021/12/24 20:49:24;;;;;;;0.00;0.00;;;0.20;99.90;;;;;;4886095;29;20036;-72
2021/12/24 20:51:50;;;;;;;0.00;0.00;;;0.10;99.90;;;;;;4884389;29;20143;-74